sensor_id;sensor_type;location;lat;lon;timestamp;temperature;humidity
7518;DHT22;3800;48.922;9.444;2023-08-08T00:00:20;11.90;99.90
7518;DHT22;3800;48.922;9.444;2023-08-08T00:02:48;11.90;99.90
7518;DHT22;3800;48.922;9.444;2023-08-08T00:05:17;11.90;99.90
7518;DHT22;3800;48.922;9.444;2023-08-08T00:07:47;11.80;99.90
7518;DHT22;3800;48.922;9.444;2023-08-08T00:10:15;11.80;99.90
7518;DHT22;3800;48.922;9.444;2023-08-08T00:12:43;11.80;99.90
7518;DHT22;3800;48.922;9.444;2023-08-08T00:15:12;11.80;99.90
7518;DHT22;3800;48.922;9.444;2023-08-08T00:17:40;11.70;99.90
7518;DHT22;3800;48.922;9.444;2023-08-08T00:20:10;11.70;99.90
7518;DHT22;3800;48.922;9.444;2023-08-08T00:22:39;11.60;99.90
7518;DHT22;3800;48.922;9.444;2023-08-08T00:25:07;11.60;99.90
7518;DHT22;3800;48.922;9.444;2023-08-08T00:27:36;11.70;99.90
7518;DHT22;3800;48.922;9.444;2023-08-08T00:30:07;11.70;99.90
7518;DHT22;3800;48.922;9.444;2023-08-08T00:32:36;11.70;99.90
7518;DHT22;3800;48.922;9.444;2023-08-08T00:35:05;11.70;99.90
7518;DHT22;3800;48.922;9.444;2023-08-08T00:37:35;11.70;99.90
7518;DHT22;3800;48.922;9.444;2023-08-08T00:40:04;11.60;99.90
7518;DHT22;3800;48.922;9.444;2023-08-08T00:42:34;11.60;99.90
7518;DHT22;3800;48.922;9.444;2023-08-08T00:45:02;11.60;99.90
7518;DHT22;3800;48.922;9.444;2023-08-08T00:47:31;11.60;99.90
7518;DHT22;3800;48.922;9.444;2023-08-08T00:50:02;11.60;99.90
7518;DHT22;3800;48.922;9.444;2023-08-08T00:52:31;11.70;99.90
7518;DHT22;3800;48.922;9.444;2023-08-08T00:55:00;11.70;99.90
7518;DHT22;3800;48.922;9.444;2023-08-08T00:57:30;11.70;99.90
7518;DHT22;3800;48.922;9.444;2023-08-08T00:59:58;11.70;99.90
7518;DHT22;3800;48.922;9.444;2023-08-08T01:02:27;11.70;99.90
7518;DHT22;3800;48.922;9.444;2023-08-08T01:04:55;11.70;99.90
7518;DHT22;3800;48.922;9.444;2023-08-08T01:07:33;11.80;99.90
7518;DHT22;3800;48.922;9.444;2023-08-08T01:10:06;11.80;99.90
7518;DHT22;3800;48.922;9.444;2023-08-08T01:12:37;11.80;99.90
7518;DHT22;3800;48.922;9.444;2023-08-08T01:15:05;11.80;99.90
7518;DHT22;3800;48.922;9.444;2023-08-08T01:17:35;11.80;99.90
7518;DHT22;3800;48.922;9.444;2023-08-08T01:20:06;11.90;99.90
7518;DHT22;3800;48.922;9.444;2023-08-08T01:22:37;11.90;99.90
7518;DHT22;3800;48.922;9.444;2023-08-08T01:25:06;11.90;99.90
7518;DHT22;3800;48.922;9.444;2023-08-08T01:27:35;11.90;99.90
7518;DHT22;3800;48.922;9.444;2023-08-08T01:30:06;11.90;99.90
7518;DHT22;3800;48.922;9.444;2023-08-08T01:32:34;11.90;99.90
7518;DHT22;3800;48.922;9.444;2023-08-08T01:35:02;11.90;99.90
7518;DHT22;3800;48.922;9.444;2023-08-08T01:37:36;11.80;99.90
7518;DHT22;3800;48.922;9.444;2023-08-08T01:40:08;11.90;99.90
7518;DHT22;3800;48.922;9.444;2023-08-08T01:42:37;11.90;99.90
7518;DHT22;3800;48.922;9.444;2023-08-08T01:45:08;11.90;99.90
7518;DHT22;3800;48.922;9.444;2023-08-08T01:47:37;11.90;99.90
7518;DHT22;3800;48.922;9.444;2023-08-08T01:50:06;11.90;99.90
7518;DHT22;3800;48.922;9.444;2023-08-08T01:52:35;11.90;99.90
7518;DHT22;3800;48.922;9.444;2023-08-08T01:55:05;11.90;99.90
7518;DHT22;3800;48.922;9.444;2023-08-08T01:57:34;11.90;99.90
7518;DHT22;3800;48.922;9.444;2023-08-08T02:00:04;11.90;99.90
7518;DHT22;3800;48.922;9.444;2023-08-08T02:02:32;11.90;99.90
7518;DHT22;3800;48.922;9.444;2023-08-08T02:05:01;11.90;99.90
7518;DHT22;3800;48.922;9.444;2023-08-08T02:07:30;12.00;99.90
7518;DHT22;3800;48.922;9.444;2023-08-08T02:09:58;12.00;99.90
7518;DHT22;3800;48.922;9.444;2023-08-08T02:12:27;12.00;99.90
7518;DHT22;3800;48.922;9.444;2023-08-08T02:14:56;12.00;99.90
7518;DHT22;3800;48.922;9.444;2023-08-08T02:17:25;12.00;99.90
7518;DHT22;3800;48.922;9.444;2023-08-08T02:19:53;12.00;99.90
7518;DHT22;3800;48.922;9.444;2023-08-08T02:22:22;12.10;99.90
7518;DHT22;3800;48.922;9.444;2023-08-08T02:24:49;12.10;99.90
7518;DHT22;3800;48.922;9.444;2023-08-08T02:27:18;12.00;99.90
7518;DHT22;3800;48.922;9.444;2023-08-08T02:29:48;12.00;99.90
7518;DHT22;3800;48.922;9.444;2023-08-08T02:32:16;12.00;99.90
7518;DHT22;3800;48.922;9.444;2023-08-08T02:34:44;12.00;99.90
7518;DHT22;3800;48.922;9.444;2023-08-08T02:37:13;12.10;99.90
7518;DHT22;3800;48.922;9.444;2023-08-08T02:39:43;12.10;99.90
7518;DHT22;3800;48.922;9.444;2023-08-08T02:42:11;12.10;99.90
7518;DHT22;3800;48.922;9.444;2023-08-08T02:44:40;12.10;99.90
7518;DHT22;3800;48.922;9.444;2023-08-08T02:47:08;12.00;99.90
7518;DHT22;3800;48.922;9.444;2023-08-08T02:49:38;12.00;99.90
7518;DHT22;3800;48.922;9.444;2023-08-08T02:52:07;12.00;99.90
7518;DHT22;3800;48.922;9.444;2023-08-08T02:54:36;12.10;99.90
7518;DHT22;3800;48.922;9.444;2023-08-08T02:57:05;12.10;99.90
7518;DHT22;3800;48.922;9.444;2023-08-08T02:59:33;12.10;99.90
7518;DHT22;3800;48.922;9.444;2023-08-08T03:02:03;12.00;99.90
7518;DHT22;3800;48.922;9.444;2023-08-08T03:04:32;12.10;99.90
7518;DHT22;3800;48.922;9.444;2023-08-08T03:07:00;12.00;99.90
7518;DHT22;3800;48.922;9.444;2023-08-08T03:09:28;12.00;99.90
7518;DHT22;3800;48.922;9.444;2023-08-08T03:11:57;11.90;99.90
7518;DHT22;3800;48.922;9.444;2023-08-08T03:14:26;11.90;99.90
7518;DHT22;3800;48.922;9.444;2023-08-08T03:16:54;11.90;99.90
7518;DHT22;3800;48.922;9.444;2023-08-08T03:19:22;11.80;99.90
7518;DHT22;3800;48.922;9.444;2023-08-08T03:21:51;11.80;99.90
7518;DHT22;3800;48.922;9.444;2023-08-08T03:24:19;11.80;99.90
7518;DHT22;3800;48.922;9.444;2023-08-08T03:26:47;11.80;99.90
7518;DHT22;3800;48.922;9.444;2023-08-08T03:29:16;11.80;99.90
7518;DHT22;3800;48.922;9.444;2023-08-08T03:31:44;11.70;99.90
7518;DHT22;3800;48.922;9.444;2023-08-08T03:34:12;11.70;99.90
7518;DHT22;3800;48.922;9.444;2023-08-08T03:36:41;11.70;99.90
7518;DHT22;3800;48.922;9.444;2023-08-08T03:39:09;11.60;99.90
7518;DHT22;3800;48.922;9.444;2023-08-08T03:41:38;11.60;99.90
7518;DHT22;3800;48.922;9.444;2023-08-08T03:44:08;11.50;99.90
7518;DHT22;3800;48.922;9.444;2023-08-08T03:46:37;11.50;99.90
7518;DHT22;3800;48.922;9.444;2023-08-08T03:49:05;11.40;99.90
7518;DHT22;3800;48.922;9.444;2023-08-08T03:51:34;11.40;99.90
7518;DHT22;3800;48.922;9.444;2023-08-08T03:54:02;11.40;99.90
7518;DHT22;3800;48.922;9.444;2023-08-08T03:56:31;11.40;99.90
7518;DHT22;3800;48.922;9.444;2023-08-08T03:58:59;11.40;99.90
7518;DHT22;3800;48.922;9.444;2023-08-08T04:01:28;11.40;99.90
7518;DHT22;3800;48.922;9.444;2023-08-08T04:03:56;11.40;99.90
7518;DHT22;3800;48.922;9.444;2023-08-08T04:06:25;11.40;99.90
7518;DHT22;3800;48.922;9.444;2023-08-08T04:08:53;11.40;99.90
7518;DHT22;3800;48.922;9.444;2023-08-08T04:11:22;11.40;99.90
7518;DHT22;3800;48.922;9.444;2023-08-08T04:13:51;11.40;99.90
7518;DHT22;3800;48.922;9.444;2023-08-08T04:16:19;11.50;99.90
7518;DHT22;3800;48.922;9.444;2023-08-08T04:18:49;11.50;99.90
7518;DHT22;3800;48.922;9.444;2023-08-08T04:21:18;11.50;99.90
7518;DHT22;3800;48.922;9.444;2023-08-08T04:23:47;11.60;99.90
7518;DHT22;3800;48.922;9.444;2023-08-08T04:26:16;11.60;99.90
7518;DHT22;3800;48.922;9.444;2023-08-08T04:28:45;11.50;99.90
7518;DHT22;3800;48.922;9.444;2023-08-08T04:31:13;11.50;99.90
7518;DHT22;3800;48.922;9.444;2023-08-08T04:33:42;11.60;99.90
7518;DHT22;3800;48.922;9.444;2023-08-08T04:36:10;11.60;99.90
7518;DHT22;3800;48.922;9.444;2023-08-08T04:38:39;11.60;99.90
7518;DHT22;3800;48.922;9.444;2023-08-08T04:41:08;11.60;99.90
7518;DHT22;3800;48.922;9.444;2023-08-08T04:43:37;11.70;99.90
7518;DHT22;3800;48.922;9.444;2023-08-08T04:46:06;11.60;99.90
7518;DHT22;3800;48.922;9.444;2023-08-08T04:48:34;11.70;99.90
7518;DHT22;3800;48.922;9.444;2023-08-08T04:51:04;11.70;99.90
7518;DHT22;3800;48.922;9.444;2023-08-08T04:53:34;11.70;99.90
7518;DHT22;3800;48.922;9.444;2023-08-08T04:56:02;11.80;99.90
7518;DHT22;3800;48.922;9.444;2023-08-08T04:58:31;11.80;99.90
7518;DHT22;3800;48.922;9.444;2023-08-08T05:00:59;11.90;99.90
7518;DHT22;3800;48.922;9.444;2023-08-08T05:03:28;11.90;99.90
7518;DHT22;3800;48.922;9.444;2023-08-08T05:05:57;11.90;99.90
7518;DHT22;3800;48.922;9.444;2023-08-08T05:08:25;11.90;99.90
7518;DHT22;3800;48.922;9.444;2023-08-08T05:10:53;11.90;99.90
7518;DHT22;3800;48.922;9.444;2023-08-08T05:13:22;12.00;99.90
7518;DHT22;3800;48.922;9.444;2023-08-08T05:15:51;12.00;99.90
7518;DHT22;3800;48.922;9.444;2023-08-08T05:18:20;12.00;99.90
7518;DHT22;3800;48.922;9.444;2023-08-08T05:20:49;12.00;99.90
7518;DHT22;3800;48.922;9.444;2023-08-08T05:23:19;12.00;99.90
7518;DHT22;3800;48.922;9.444;2023-08-08T05:25:47;12.00;99.90
7518;DHT22;3800;48.922;9.444;2023-08-08T05:28:15;12.00;99.90
7518;DHT22;3800;48.922;9.444;2023-08-08T05:30:44;12.10;99.90
7518;DHT22;3800;48.922;9.444;2023-08-08T05:33:12;12.20;99.90
7518;DHT22;3800;48.922;9.444;2023-08-08T05:35:40;12.20;99.90
7518;DHT22;3800;48.922;9.444;2023-08-08T05:38:09;12.30;99.90
7518;DHT22;3800;48.922;9.444;2023-08-08T05:40:38;12.40;99.90
7518;DHT22;3800;48.922;9.444;2023-08-08T05:43:06;12.60;99.90
7518;DHT22;3800;48.922;9.444;2023-08-08T05:45:34;12.70;99.90
7518;DHT22;3800;48.922;9.444;2023-08-08T05:48:02;12.80;99.90
7518;DHT22;3800;48.922;9.444;2023-08-08T05:50:32;13.10;99.90
7518;DHT22;3800;48.922;9.444;2023-08-08T05:53:00;13.00;99.90
7518;DHT22;3800;48.922;9.444;2023-08-08T05:55:28;13.20;99.90
7518;DHT22;3800;48.922;9.444;2023-08-08T05:57:56;13.30;99.90
7518;DHT22;3800;48.922;9.444;2023-08-08T06:00:25;13.30;99.90
7518;DHT22;3800;48.922;9.444;2023-08-08T06:02:54;13.40;99.90
7518;DHT22;3800;48.922;9.444;2023-08-08T06:05:22;13.50;99.90
7518;DHT22;3800;48.922;9.444;2023-08-08T06:07:51;13.70;99.90
7518;DHT22;3800;48.922;9.444;2023-08-08T06:10:19;13.70;99.90
7518;DHT22;3800;48.922;9.444;2023-08-08T06:12:48;13.70;99.90
7518;DHT22;3800;48.922;9.444;2023-08-08T06:15:16;13.80;99.90
7518;DHT22;3800;48.922;9.444;2023-08-08T06:17:44;13.80;99.90
7518;DHT22;3800;48.922;9.444;2023-08-08T06:20:13;13.80;99.90
7518;DHT22;3800;48.922;9.444;2023-08-08T06:22:41;13.90;99.90
7518;DHT22;3800;48.922;9.444;2023-08-08T06:25:09;14.00;99.90
7518;DHT22;3800;48.922;9.444;2023-08-08T06:27:37;14.00;99.90
7518;DHT22;3800;48.922;9.444;2023-08-08T06:30:06;14.10;99.90
7518;DHT22;3800;48.922;9.444;2023-08-08T06:32:35;14.20;99.90
7518;DHT22;3800;48.922;9.444;2023-08-08T06:35:29;14.40;99.90
7518;DHT22;3800;48.922;9.444;2023-08-08T06:37:57;14.50;99.90
7518;DHT22;3800;48.922;9.444;2023-08-08T06:40:26;14.90;99.90
7518;DHT22;3800;48.922;9.444;2023-08-08T06:42:55;14.90;99.90
7518;DHT22;3800;48.922;9.444;2023-08-08T06:45:23;15.10;99.90
7518;DHT22;3800;48.922;9.444;2023-08-08T06:47:52;15.40;99.90
7518;DHT22;3800;48.922;9.444;2023-08-08T06:50:21;15.40;99.90
7518;DHT22;3800;48.922;9.444;2023-08-08T06:52:49;15.50;99.90
7518;DHT22;3800;48.922;9.444;2023-08-08T06:55:18;15.70;99.90
7518;DHT22;3800;48.922;9.444;2023-08-08T06:57:46;15.80;99.90
7518;DHT22;3800;48.922;9.444;2023-08-08T07:00:14;15.80;99.90
7518;DHT22;3800;48.922;9.444;2023-08-08T07:02:44;15.90;99.90
7518;DHT22;3800;48.922;9.444;2023-08-08T07:05:13;16.00;99.90
7518;DHT22;3800;48.922;9.444;2023-08-08T07:07:41;16.10;99.90
7518;DHT22;3800;48.922;9.444;2023-08-08T07:10:10;16.20;99.90
7518;DHT22;3800;48.922;9.444;2023-08-08T07:12:38;16.30;99.90
7518;DHT22;3800;48.922;9.444;2023-08-08T07:15:07;16.40;99.90
7518;DHT22;3800;48.922;9.444;2023-08-08T07:17:36;16.50;99.90
7518;DHT22;3800;48.922;9.444;2023-08-08T07:20:05;16.60;99.90
7518;DHT22;3800;48.922;9.444;2023-08-08T07:22:34;16.70;99.90
7518;DHT22;3800;48.922;9.444;2023-08-08T07:25:02;16.70;99.90
7518;DHT22;3800;48.922;9.444;2023-08-08T07:27:31;16.70;99.90
7518;DHT22;3800;48.922;9.444;2023-08-08T07:29:59;16.70;99.90
7518;DHT22;3800;48.922;9.444;2023-08-08T07:32:27;16.80;99.90
7518;DHT22;3800;48.922;9.444;2023-08-08T07:34:56;17.00;99.90
7518;DHT22;3800;48.922;9.444;2023-08-08T07:37:24;17.10;99.90
7518;DHT22;3800;48.922;9.444;2023-08-08T07:39:52;17.20;99.90
7518;DHT22;3800;48.922;9.444;2023-08-08T07:42:20;17.20;99.90
7518;DHT22;3800;48.922;9.444;2023-08-08T07:44:49;17.30;99.90
7518;DHT22;3800;48.922;9.444;2023-08-08T07:47:18;17.30;99.90
7518;DHT22;3800;48.922;9.444;2023-08-08T07:49:47;17.20;99.90
7518;DHT22;3800;48.922;9.444;2023-08-08T07:52:15;17.30;99.90
7518;DHT22;3800;48.922;9.444;2023-08-08T07:54:44;17.30;99.90
7518;DHT22;3800;48.922;9.444;2023-08-08T07:57:14;17.30;99.90
7518;DHT22;3800;48.922;9.444;2023-08-08T07:59:42;17.30;99.90
7518;DHT22;3800;48.922;9.444;2023-08-08T08:02:10;17.50;99.90
7518;DHT22;3800;48.922;9.444;2023-08-08T08:04:38;17.70;99.90
7518;DHT22;3800;48.922;9.444;2023-08-08T08:07:07;18.00;99.90
7518;DHT22;3800;48.922;9.444;2023-08-08T08:09:36;18.40;99.90
7518;DHT22;3800;48.922;9.444;2023-08-08T08:12:04;18.40;99.90
7518;DHT22;3800;48.922;9.444;2023-08-08T08:14:33;18.80;99.90
7518;DHT22;3800;48.922;9.444;2023-08-08T08:17:02;18.80;99.90
7518;DHT22;3800;48.922;9.444;2023-08-08T08:19:30;18.90;99.90
7518;DHT22;3800;48.922;9.444;2023-08-08T08:21:58;19.00;99.90
7518;DHT22;3800;48.922;9.444;2023-08-08T08:24:27;19.00;99.90
7518;DHT22;3800;48.922;9.444;2023-08-08T08:26:56;18.80;99.90
7518;DHT22;3800;48.922;9.444;2023-08-08T08:29:24;18.80;99.90
7518;DHT22;3800;48.922;9.444;2023-08-08T08:31:52;18.70;99.90
7518;DHT22;3800;48.922;9.444;2023-08-08T08:34:20;18.50;99.90
7518;DHT22;3800;48.922;9.444;2023-08-08T08:36:49;18.50;99.90
7518;DHT22;3800;48.922;9.444;2023-08-08T08:39:18;18.50;99.90
7518;DHT22;3800;48.922;9.444;2023-08-08T08:41:48;18.50;99.90
7518;DHT22;3800;48.922;9.444;2023-08-08T08:44:17;18.60;99.90
7518;DHT22;3800;48.922;9.444;2023-08-08T08:46:46;18.60;99.90
7518;DHT22;3800;48.922;9.444;2023-08-08T08:49:14;18.80;99.90
7518;DHT22;3800;48.922;9.444;2023-08-08T08:51:42;19.00;99.90
7518;DHT22;3800;48.922;9.444;2023-08-08T08:54:10;19.10;99.90
7518;DHT22;3800;48.922;9.444;2023-08-08T08:56:39;19.30;99.90
7518;DHT22;3800;48.922;9.444;2023-08-08T08:59:07;19.30;99.90
7518;DHT22;3800;48.922;9.444;2023-08-08T09:01:35;19.30;99.90
7518;DHT22;3800;48.922;9.444;2023-08-08T09:04:04;19.30;99.90
7518;DHT22;3800;48.922;9.444;2023-08-08T09:06:34;19.20;99.90
7518;DHT22;3800;48.922;9.444;2023-08-08T09:09:02;19.30;99.90
7518;DHT22;3800;48.922;9.444;2023-08-08T09:11:31;19.20;99.90
7518;DHT22;3800;48.922;9.444;2023-08-08T09:14:00;19.10;99.90
7518;DHT22;3800;48.922;9.444;2023-08-08T09:16:29;19.00;99.90
7518;DHT22;3800;48.922;9.444;2023-08-08T09:18:58;19.20;99.90
7518;DHT22;3800;48.922;9.444;2023-08-08T09:21:27;19.50;99.90
7518;DHT22;3800;48.922;9.444;2023-08-08T09:23:56;19.70;99.90
7518;DHT22;3800;48.922;9.444;2023-08-08T09:26:27;19.80;99.90
7518;DHT22;3800;48.922;9.444;2023-08-08T09:28:54;19.80;99.90
7518;DHT22;3800;48.922;9.444;2023-08-08T09:31:25;19.70;99.90
7518;DHT22;3800;48.922;9.444;2023-08-08T09:33:53;19.60;99.90
7518;DHT22;3800;48.922;9.444;2023-08-08T09:36:22;19.60;99.90
7518;DHT22;3800;48.922;9.444;2023-08-08T09:38:49;19.60;99.90
7518;DHT22;3800;48.922;9.444;2023-08-08T09:41:19;19.80;99.90
7518;DHT22;3800;48.922;9.444;2023-08-08T09:43:47;19.90;99.90
7518;DHT22;3800;48.922;9.444;2023-08-08T09:46:18;20.50;99.90
7518;DHT22;3800;48.922;9.444;2023-08-08T09:48:48;20.60;99.90
7518;DHT22;3800;48.922;9.444;2023-08-08T09:51:16;20.60;99.90
7518;DHT22;3800;48.922;9.444;2023-08-08T09:53:45;20.80;99.90
7518;DHT22;3800;48.922;9.444;2023-08-08T09:56:14;20.80;99.90
7518;DHT22;3800;48.922;9.444;2023-08-08T09:58:42;20.70;99.90
7518;DHT22;3800;48.922;9.444;2023-08-08T10:01:11;20.60;99.90
7518;DHT22;3800;48.922;9.444;2023-08-08T10:03:40;20.60;99.90
7518;DHT22;3800;48.922;9.444;2023-08-08T10:06:08;20.60;99.90
7518;DHT22;3800;48.922;9.444;2023-08-08T10:08:36;20.60;99.90
7518;DHT22;3800;48.922;9.444;2023-08-08T10:11:05;20.50;99.90
7518;DHT22;3800;48.922;9.444;2023-08-08T10:13:33;20.70;99.90
7518;DHT22;3800;48.922;9.444;2023-08-08T10:16:08;21.00;99.90
7518;DHT22;3800;48.922;9.444;2023-08-08T10:18:36;21.20;99.90
7518;DHT22;3800;48.922;9.444;2023-08-08T10:21:04;21.20;99.90
7518;DHT22;3800;48.922;9.444;2023-08-08T10:23:37;20.90;99.90
7518;DHT22;3800;48.922;9.444;2023-08-08T10:26:06;20.60;99.90
7518;DHT22;3800;48.922;9.444;2023-08-08T10:28:34;20.50;99.90
7518;DHT22;3800;48.922;9.444;2023-08-08T10:31:03;20.40;99.90
7518;DHT22;3800;48.922;9.444;2023-08-08T10:33:40;20.40;99.90
7518;DHT22;3800;48.922;9.444;2023-08-08T10:36:08;20.40;99.90
7518;DHT22;3800;48.922;9.444;2023-08-08T10:38:42;20.40;99.90
7518;DHT22;3800;48.922;9.444;2023-08-08T10:41:17;20.30;99.90
7518;DHT22;3800;48.922;9.444;2023-08-08T10:43:52;20.50;99.90
7518;DHT22;3800;48.922;9.444;2023-08-08T10:46:24;20.70;99.90
7518;DHT22;3800;48.922;9.444;2023-08-08T10:48:58;20.90;99.80
7518;DHT22;3800;48.922;9.444;2023-08-08T10:51:42;21.10;99.50
7518;DHT22;3800;48.922;9.444;2023-08-08T10:54:15;21.10;99.40
7518;DHT22;3800;48.922;9.444;2023-08-08T10:56:50;21.20;99.70
7518;DHT22;3800;48.922;9.444;2023-08-08T10:59:22;21.00;99.10
7518;DHT22;3800;48.922;9.444;2023-08-08T11:01:50;20.90;98.90
7518;DHT22;3800;48.922;9.444;2023-08-08T11:04:18;20.80;98.50
7518;DHT22;3800;48.922;9.444;2023-08-08T11:06:47;20.80;99.60
7518;DHT22;3800;48.922;9.444;2023-08-08T11:09:17;21.00;99.00
7518;DHT22;3800;48.922;9.444;2023-08-08T11:11:46;20.90;98.10
7518;DHT22;3800;48.922;9.444;2023-08-08T11:14:15;20.90;96.90
7518;DHT22;3800;48.922;9.444;2023-08-08T11:16:43;20.90;97.40
7518;DHT22;3800;48.922;9.444;2023-08-08T11:19:11;20.90;97.40
7518;DHT22;3800;48.922;9.444;2023-08-08T11:21:40;21.00;98.00
7518;DHT22;3800;48.922;9.444;2023-08-08T11:24:08;21.20;99.00
7518;DHT22;3800;48.922;9.444;2023-08-08T11:26:36;21.20;97.90
7518;DHT22;3800;48.922;9.444;2023-08-08T11:29:05;21.20;97.80
7518;DHT22;3800;48.922;9.444;2023-08-08T11:31:34;21.30;98.20
7518;DHT22;3800;48.922;9.444;2023-08-08T11:34:03;21.60;99.70
7518;DHT22;3800;48.922;9.444;2023-08-08T11:36:32;21.80;98.30
7518;DHT22;3800;48.922;9.444;2023-08-08T11:39:02;21.80;98.60
7518;DHT22;3800;48.922;9.444;2023-08-08T11:41:31;21.80;98.50
7518;DHT22;3800;48.922;9.444;2023-08-08T11:44:03;21.80;96.50
7518;DHT22;3800;48.922;9.444;2023-08-08T11:46:30;21.80;96.50
7518;DHT22;3800;48.922;9.444;2023-08-08T11:49:04;21.60;96.30
7518;DHT22;3800;48.922;9.444;2023-08-08T11:51:33;21.50;95.90
7518;DHT22;3800;48.922;9.444;2023-08-08T11:54:02;21.50;95.80
7518;DHT22;3800;48.922;9.444;2023-08-08T11:56:32;21.50;96.20
7518;DHT22;3800;48.922;9.444;2023-08-08T11:58:59;21.60;96.30
7518;DHT22;3800;48.922;9.444;2023-08-08T12:01:28;21.70;96.40
7518;DHT22;3800;48.922;9.444;2023-08-08T12:03:56;21.60;96.40
7518;DHT22;3800;48.922;9.444;2023-08-08T12:06:27;21.50;96.70
7518;DHT22;3800;48.922;9.444;2023-08-08T12:08:53;21.60;95.70
7518;DHT22;3800;48.922;9.444;2023-08-08T12:11:22;21.70;95.00
7518;DHT22;3800;48.922;9.444;2023-08-08T12:13:51;21.70;94.70
7518;DHT22;3800;48.922;9.444;2023-08-08T12:16:19;21.70;96.60
7518;DHT22;3800;48.922;9.444;2023-08-08T12:18:48;21.70;97.20
7518;DHT22;3800;48.922;9.444;2023-08-08T12:21:17;21.60;96.00
7518;DHT22;3800;48.922;9.444;2023-08-08T12:23:45;21.60;96.90
7518;DHT22;3800;48.922;9.444;2023-08-08T12:26:13;21.70;95.90
7518;DHT22;3800;48.922;9.444;2023-08-08T12:28:42;21.80;96.30
7518;DHT22;3800;48.922;9.444;2023-08-08T12:31:11;21.80;96.30
7518;DHT22;3800;48.922;9.444;2023-08-08T12:33:39;21.70;96.40
7518;DHT22;3800;48.922;9.444;2023-08-08T12:36:08;21.50;95.70
7518;DHT22;3800;48.922;9.444;2023-08-08T12:38:36;21.50;96.50
7518;DHT22;3800;48.922;9.444;2023-08-08T12:41:04;21.60;96.60
7518;DHT22;3800;48.922;9.444;2023-08-08T12:43:33;21.70;96.80
7518;DHT22;3800;48.922;9.444;2023-08-08T12:46:01;21.70;96.90
7518;DHT22;3800;48.922;9.444;2023-08-08T12:48:30;22.00;96.80
7518;DHT22;3800;48.922;9.444;2023-08-08T12:50:59;21.80;95.10
7518;DHT22;3800;48.922;9.444;2023-08-08T12:53:27;21.80;95.10
7518;DHT22;3800;48.922;9.444;2023-08-08T12:55:56;21.80;96.50
7518;DHT22;3800;48.922;9.444;2023-08-08T12:58:24;21.90;95.20
7518;DHT22;3800;48.922;9.444;2023-08-08T13:00:52;22.10;96.60
7518;DHT22;3800;48.922;9.444;2023-08-08T13:03:21;22.30;96.00
7518;DHT22;3800;48.922;9.444;2023-08-08T13:05:50;22.20;95.60
7518;DHT22;3800;48.922;9.444;2023-08-08T13:08:18;22.30;95.40
7518;DHT22;3800;48.922;9.444;2023-08-08T13:10:46;22.30;94.80
7518;DHT22;3800;48.922;9.444;2023-08-08T13:13:14;22.40;95.70
7518;DHT22;3800;48.922;9.444;2023-08-08T13:15:43;22.60;95.30
7518;DHT22;3800;48.922;9.444;2023-08-08T13:18:11;22.70;93.30
7518;DHT22;3800;48.922;9.444;2023-08-08T13:20:39;22.50;93.80
7518;DHT22;3800;48.922;9.444;2023-08-08T13:23:08;22.30;95.20
7518;DHT22;3800;48.922;9.444;2023-08-08T13:25:37;22.30;95.20
7518;DHT22;3800;48.922;9.444;2023-08-08T13:28:06;22.60;95.80
7518;DHT22;3800;48.922;9.444;2023-08-08T13:30:35;22.90;95.50
7518;DHT22;3800;48.922;9.444;2023-08-08T13:33:04;22.90;94.90
7518;DHT22;3800;48.922;9.444;2023-08-08T13:35:35;22.80;95.30
7518;DHT22;3800;48.922;9.444;2023-08-08T13:38:04;22.80;94.70
7518;DHT22;3800;48.922;9.444;2023-08-08T13:40:32;22.70;95.30
7518;DHT22;3800;48.922;9.444;2023-08-08T13:43:01;22.60;94.70
7518;DHT22;3800;48.922;9.444;2023-08-08T13:45:29;22.70;95.70
7518;DHT22;3800;48.922;9.444;2023-08-08T13:47:58;22.80;95.20
7518;DHT22;3800;48.922;9.444;2023-08-08T13:50:26;22.80;95.30
7518;DHT22;3800;48.922;9.444;2023-08-08T13:52:56;22.70;94.70
7518;DHT22;3800;48.922;9.444;2023-08-08T13:55:25;22.60;94.60
7518;DHT22;3800;48.922;9.444;2023-08-08T13:57:54;22.60;94.70
7518;DHT22;3800;48.922;9.444;2023-08-08T14:00:24;22.60;95.40
7518;DHT22;3800;48.922;9.444;2023-08-08T14:02:53;22.50;94.90
7518;DHT22;3800;48.922;9.444;2023-08-08T14:05:21;22.50;94.50
7518;DHT22;3800;48.922;9.444;2023-08-08T14:07:51;22.50;94.60
7518;DHT22;3800;48.922;9.444;2023-08-08T14:10:19;22.40;95.10
7518;DHT22;3800;48.922;9.444;2023-08-08T14:12:47;22.60;96.50
7518;DHT22;3800;48.922;9.444;2023-08-08T14:15:17;22.80;95.00
7518;DHT22;3800;48.922;9.444;2023-08-08T14:17:50;22.80;95.00
7518;DHT22;3800;48.922;9.444;2023-08-08T14:20:19;22.80;95.10
7518;DHT22;3800;48.922;9.444;2023-08-08T14:22:47;22.90;94.00
7518;DHT22;3800;48.922;9.444;2023-08-08T14:25:15;22.70;93.60
7518;DHT22;3800;48.922;9.444;2023-08-08T14:27:45;22.70;94.90
7518;DHT22;3800;48.922;9.444;2023-08-08T14:30:13;22.80;95.80
7518;DHT22;3800;48.922;9.444;2023-08-08T14:32:42;22.60;94.40
7518;DHT22;3800;48.922;9.444;2023-08-08T14:35:10;22.50;94.80
7518;DHT22;3800;48.922;9.444;2023-08-08T14:37:39;22.50;95.70
7518;DHT22;3800;48.922;9.444;2023-08-08T14:40:08;22.50;95.20
7518;DHT22;3800;48.922;9.444;2023-08-08T14:42:36;22.40;94.80
7518;DHT22;3800;48.922;9.444;2023-08-08T14:45:05;22.30;95.40
7518;DHT22;3800;48.922;9.444;2023-08-08T14:47:35;22.40;96.30
7518;DHT22;3800;48.922;9.444;2023-08-08T14:50:06;22.70;96.60
7518;DHT22;3800;48.922;9.444;2023-08-08T14:52:34;22.70;96.30
7518;DHT22;3800;48.922;9.444;2023-08-08T14:55:03;22.50;95.70
7518;DHT22;3800;48.922;9.444;2023-08-08T14:57:32;22.40;96.70
7518;DHT22;3800;48.922;9.444;2023-08-08T15:00:01;22.40;96.60
7518;DHT22;3800;48.922;9.444;2023-08-08T15:02:30;22.30;96.10
7518;DHT22;3800;48.922;9.444;2023-08-08T15:04:59;22.20;95.30
7518;DHT22;3800;48.922;9.444;2023-08-08T15:07:27;22.10;95.50
7518;DHT22;3800;48.922;9.444;2023-08-08T15:09:55;21.90;95.90
7518;DHT22;3800;48.922;9.444;2023-08-08T15:12:24;21.80;96.50
7518;DHT22;3800;48.922;9.444;2023-08-08T15:14:52;21.70;96.80
7518;DHT22;3800;48.922;9.444;2023-08-08T15:17:21;21.60;97.10
7518;DHT22;3800;48.922;9.444;2023-08-08T15:19:49;21.70;96.60
7518;DHT22;3800;48.922;9.444;2023-08-08T15:22:17;21.60;96.70
7518;DHT22;3800;48.922;9.444;2023-08-08T15:24:46;21.40;96.90
7518;DHT22;3800;48.922;9.444;2023-08-08T15:27:14;21.40;96.90
7518;DHT22;3800;48.922;9.444;2023-08-08T15:29:44;21.30;96.80
7518;DHT22;3800;48.922;9.444;2023-08-08T15:32:12;21.30;97.70
7518;DHT22;3800;48.922;9.444;2023-08-08T15:34:41;21.20;97.60
7518;DHT22;3800;48.922;9.444;2023-08-08T15:37:09;21.10;97.50
7518;DHT22;3800;48.922;9.444;2023-08-08T15:39:38;21.00;97.60
7518;DHT22;3800;48.922;9.444;2023-08-08T15:42:06;21.00;98.00
7518;DHT22;3800;48.922;9.444;2023-08-08T15:44:35;20.90;98.10
7518;DHT22;3800;48.922;9.444;2023-08-08T15:47:03;20.90;97.90
7518;DHT22;3800;48.922;9.444;2023-08-08T15:49:33;20.80;98.00
7518;DHT22;3800;48.922;9.444;2023-08-08T15:52:01;20.80;98.20
7518;DHT22;3800;48.922;9.444;2023-08-08T15:54:29;20.90;98.20
7518;DHT22;3800;48.922;9.444;2023-08-08T15:56:58;21.10;98.60
7518;DHT22;3800;48.922;9.444;2023-08-08T15:59:26;21.10;98.80
7518;DHT22;3800;48.922;9.444;2023-08-08T16:01:55;21.30;98.50
7518;DHT22;3800;48.922;9.444;2023-08-08T16:04:23;21.30;98.50
7518;DHT22;3800;48.922;9.444;2023-08-08T16:06:52;21.30;97.90
7518;DHT22;3800;48.922;9.444;2023-08-08T16:09:21;21.40;98.10
7518;DHT22;3800;48.922;9.444;2023-08-08T16:11:50;21.40;98.10